sensor_id;sensor_type;location;lat;lon;timestamp;P1;durP1;ratioP1;P2;durP2;ratioP2
54599;SDS011;40500;51.084;16.958;2023-05-24T00:01:08;6.30;;;5.70;;
54599;SDS011;40500;51.084;16.958;2023-05-24T00:03:38;6.10;;;5.50;;
54599;SDS011;40500;51.084;16.958;2023-05-24T00:06:09;7.70;;;4.90;;
54599;SDS011;40500;51.084;16.958;2023-05-24T00:08:40;4.50;;;4.10;;
54599;SDS011;40500;51.084;16.958;2023-05-24T00:11:10;8.40;;;2.60;;
54599;SDS011;40500;51.084;16.958;2023-05-24T00:13:40;2.40;;;1.90;;
54599;SDS011;40500;51.084;16.958;2023-05-24T00:16:11;2.60;;;1.60;;
54599;SDS011;40500;51.084;16.958;2023-05-24T00:18:42;2.80;;;1.50;;
54599;SDS011;40500;51.084;16.958;2023-05-24T00:21:14;1.00;;;1.00;;
54599;SDS011;40500;51.084;16.958;2023-05-24T00:23:45;2.20;;;1.60;;
54599;SDS011;40500;51.084;16.958;2023-05-24T00:26:18;1.40;;;1.30;;
54599;SDS011;40500;51.084;16.958;2023-05-24T00:28:52;1.30;;;1.20;;
54599;SDS011;40500;51.084;16.958;2023-05-24T00:31:23;1.10;;;1.10;;
54599;SDS011;40500;51.084;16.958;2023-05-24T00:33:53;1.40;;;1.30;;
54599;SDS011;40500;51.084;16.958;2023-05-24T00:36:24;1.40;;;1.10;;
54599;SDS011;40500;51.084;16.958;2023-05-24T00:38:54;1.10;;;1.10;;
54599;SDS011;40500;51.084;16.958;2023-05-24T00:41:24;1.00;;;1.00;;
54599;SDS011;40500;51.084;16.958;2023-05-24T00:43:55;1.40;;;1.00;;
54599;SDS011;40500;51.084;16.958;2023-05-24T00:46:26;0.80;;;0.80;;
54599;SDS011;40500;51.084;16.958;2023-05-24T00:48:58;0.70;;;0.70;;
54599;SDS011;40500;51.084;16.958;2023-05-24T00:51:29;0.90;;;0.80;;
54599;SDS011;40500;51.084;16.958;2023-05-24T00:54:00;1.30;;;0.80;;
54599;SDS011;40500;51.084;16.958;2023-05-24T00:56:31;0.80;;;0.80;;
54599;SDS011;40500;51.084;16.958;2023-05-24T00:59:02;0.70;;;0.70;;
54599;SDS011;40500;51.084;16.958;2023-05-24T01:01:33;0.50;;;0.50;;
54599;SDS011;40500;51.084;16.958;2023-05-24T01:04:04;0.70;;;0.70;;
54599;SDS011;40500;51.084;16.958;2023-05-24T01:06:36;0.80;;;0.80;;
54599;SDS011;40500;51.084;16.958;2023-05-24T01:09:22;0.80;;;0.80;;
54599;SDS011;40500;51.084;16.958;2023-05-24T01:12:02;0.70;;;0.70;;
54599;SDS011;40500;51.084;16.958;2023-05-24T01:14:47;0.60;;;0.60;;
54599;SDS011;40500;51.084;16.958;2023-05-24T01:17:27;0.70;;;0.70;;
54599;SDS011;40500;51.084;16.958;2023-05-24T01:20:04;1.00;;;1.00;;
54599;SDS011;40500;51.084;16.958;2023-05-24T01:22:43;0.80;;;0.80;;
54599;SDS011;40500;51.084;16.958;2023-05-24T01:28:28;1.10;;;0.90;;
54599;SDS011;40500;51.084;16.958;2023-05-24T01:30:59;0.90;;;0.90;;
54599;SDS011;40500;51.084;16.958;2023-05-24T01:33:32;1.00;;;1.00;;
54599;SDS011;40500;51.084;16.958;2023-05-24T01:36:02;1.20;;;1.10;;
54599;SDS011;40500;51.084;16.958;2023-05-24T01:38:33;1.50;;;1.30;;
54599;SDS011;40500;51.084;16.958;2023-05-24T01:41:09;3.10;;;1.50;;
54599;SDS011;40500;51.084;16.958;2023-05-24T01:43:52;1.40;;;1.10;;
54599;SDS011;40500;51.084;16.958;2023-05-24T01:46:32;1.60;;;1.20;;
54599;SDS011;40500;51.084;16.958;2023-05-24T01:49:10;2.60;;;1.60;;
54599;SDS011;40500;51.084;16.958;2023-05-24T01:51:50;2.50;;;1.90;;
54599;SDS011;40500;51.084;16.958;2023-05-24T01:54:27;2.00;;;1.80;;
54599;SDS011;40500;51.084;16.958;2023-05-24T01:57:01;3.60;;;1.80;;
54599;SDS011;40500;51.084;16.958;2023-05-24T01:59:35;4.10;;;1.80;;
54599;SDS011;40500;51.084;16.958;2023-05-24T02:02:10;3.40;;;2.00;;
54599;SDS011;40500;51.084;16.958;2023-05-24T02:04:40;2.40;;;2.00;;
54599;SDS011;40500;51.084;16.958;2023-05-24T02:07:11;4.50;;;2.40;;
54599;SDS011;40500;51.084;16.958;2023-05-24T02:09:41;4.40;;;2.20;;
54599;SDS011;40500;51.084;16.958;2023-05-24T02:12:13;4.80;;;2.50;;
54599;SDS011;40500;51.084;16.958;2023-05-24T02:14:43;6.80;;;2.90;;
54599;SDS011;40500;51.084;16.958;2023-05-24T02:17:17;4.10;;;2.70;;
54599;SDS011;40500;51.084;16.958;2023-05-24T02:19:49;4.00;;;1.70;;
54599;SDS011;40500;51.084;16.958;2023-05-24T02:22:19;2.90;;;1.70;;
54599;SDS011;40500;51.084;16.958;2023-05-24T02:24:52;5.20;;;2.00;;
54599;SDS011;40500;51.084;16.958;2023-05-24T02:27:22;2.60;;;1.80;;
54599;SDS011;40500;51.084;16.958;2023-05-24T02:29:53;3.10;;;1.80;;
54599;SDS011;40500;51.084;16.958;2023-05-24T02:32:24;2.70;;;1.60;;
54599;SDS011;40500;51.084;16.958;2023-05-24T02:34:54;2.20;;;1.20;;
54599;SDS011;40500;51.084;16.958;2023-05-24T02:37:26;4.20;;;1.50;;
54599;SDS011;40500;51.084;16.958;2023-05-24T02:39:56;2.00;;;1.40;;
54599;SDS011;40500;51.084;16.958;2023-05-24T02:42:26;3.60;;;1.80;;
54599;SDS011;40500;51.084;16.958;2023-05-24T02:44:57;3.30;;;1.70;;
54599;SDS011;40500;51.084;16.958;2023-05-24T02:47:27;3.00;;;1.50;;
54599;SDS011;40500;51.084;16.958;2023-05-24T02:49:58;4.00;;;1.70;;
54599;SDS011;40500;51.084;16.958;2023-05-24T02:52:29;7.00;;;1.90;;
54599;SDS011;40500;51.084;16.958;2023-05-24T02:54:59;5.10;;;1.90;;
54599;SDS011;40500;51.084;16.958;2023-05-24T02:57:31;2.70;;;1.50;;
54599;SDS011;40500;51.084;16.958;2023-05-24T03:00:02;2.50;;;1.70;;
54599;SDS011;40500;51.084;16.958;2023-05-24T03:02:35;1.80;;;1.70;;
54599;SDS011;40500;51.084;16.958;2023-05-24T03:05:08;3.30;;;2.10;;
54599;SDS011;40500;51.084;16.958;2023-05-24T03:07:38;1.60;;;1.40;;
54599;SDS011;40500;51.084;16.958;2023-05-24T03:10:09;3.40;;;1.80;;
54599;SDS011;40500;51.084;16.958;2023-05-24T03:12:43;5.30;;;2.20;;
54599;SDS011;40500;51.084;16.958;2023-05-24T03:15:14;5.00;;;2.10;;
54599;SDS011;40500;51.084;16.958;2023-05-24T03:17:45;4.40;;;2.10;;
54599;SDS011;40500;51.084;16.958;2023-05-24T03:20:16;4.10;;;2.00;;
54599;SDS011;40500;51.084;16.958;2023-05-24T03:22:48;3.70;;;1.90;;
54599;SDS011;40500;51.084;16.958;2023-05-24T03:25:18;4.10;;;2.20;;
54599;SDS011;40500;51.084;16.958;2023-05-24T03:27:49;5.60;;;2.00;;
54599;SDS011;40500;51.084;16.958;2023-05-24T03:30:21;3.60;;;1.90;;
54599;SDS011;40500;51.084;16.958;2023-05-24T03:32:54;4.40;;;2.00;;
54599;SDS011;40500;51.084;16.958;2023-05-24T03:35:24;3.00;;;2.00;;
54599;SDS011;40500;51.084;16.958;2023-05-24T03:37:55;5.50;;;2.20;;
54599;SDS011;40500;51.084;16.958;2023-05-24T03:40:29;4.10;;;2.00;;
54599;SDS011;40500;51.084;16.958;2023-05-24T03:43:12;3.60;;;1.80;;
54599;SDS011;40500;51.084;16.958;2023-05-24T03:46:05;2.30;;;2.10;;
54599;SDS011;40500;51.084;16.958;2023-05-24T03:48:36;2.10;;;1.90;;
54599;SDS011;40500;51.084;16.958;2023-05-24T03:51:06;2.30;;;2.10;;
54599;SDS011;40500;51.084;16.958;2023-05-24T03:53:37;2.80;;;1.80;;
54599;SDS011;40500;51.084;16.958;2023-05-24T03:56:07;4.60;;;1.90;;
54599;SDS011;40500;51.084;16.958;2023-05-24T03:58:38;4.80;;;3.20;;
54599;SDS011;40500;51.084;16.958;2023-05-24T04:01:08;2.40;;;1.90;;
54599;SDS011;40500;51.084;16.958;2023-05-24T04:03:59;2.60;;;2.40;;
54599;SDS011;40500;51.084;16.958;2023-05-24T04:06:30;5.90;;;2.20;;
54599;SDS011;40500;51.084;16.958;2023-05-24T04:09:03;6.60;;;2.20;;
54599;SDS011;40500;51.084;16.958;2023-05-24T04:11:34;2.80;;;1.90;;
54599;SDS011;40500;51.084;16.958;2023-05-24T04:14:04;4.30;;;2.50;;
54599;SDS011;40500;51.084;16.958;2023-05-24T04:16:35;3.40;;;2.80;;
54599;SDS011;40500;51.084;16.958;2023-05-24T04:19:06;5.20;;;2.80;;
54599;SDS011;40500;51.084;16.958;2023-05-24T04:21:38;4.40;;;2.50;;
54599;SDS011;40500;51.084;16.958;2023-05-24T04:24:09;3.70;;;2.60;;
54599;SDS011;40500;51.084;16.958;2023-05-24T04:26:39;5.70;;;2.60;;
54599;SDS011;40500;51.084;16.958;2023-05-24T04:29:10;4.60;;;2.40;;
54599;SDS011;40500;51.084;16.958;2023-05-24T04:31:41;4.20;;;2.50;;
54599;SDS011;40500;51.084;16.958;2023-05-24T04:34:12;6.90;;;2.90;;
54599;SDS011;40500;51.084;16.958;2023-05-24T04:36:42;5.60;;;2.60;;
54599;SDS011;40500;51.084;16.958;2023-05-24T04:39:14;6.50;;;2.90;;
54599;SDS011;40500;51.084;16.958;2023-05-24T04:41:45;4.00;;;2.10;;
54599;SDS011;40500;51.084;16.958;2023-05-24T04:44:17;3.60;;;2.90;;
54599;SDS011;40500;51.084;16.958;2023-05-24T04:46:50;5.30;;;2.30;;
54599;SDS011;40500;51.084;16.958;2023-05-24T04:49:21;2.40;;;1.70;;
54599;SDS011;40500;51.084;16.958;2023-05-24T04:51:52;4.30;;;2.50;;
54599;SDS011;40500;51.084;16.958;2023-05-24T04:54:22;3.50;;;2.30;;
54599;SDS011;40500;51.084;16.958;2023-05-24T04:56:52;3.10;;;2.10;;
54599;SDS011;40500;51.084;16.958;2023-05-24T04:59:23;3.30;;;2.30;;
54599;SDS011;40500;51.084;16.958;2023-05-24T05:01:54;4.50;;;1.90;;
54599;SDS011;40500;51.084;16.958;2023-05-24T05:04:25;5.80;;;2.50;;
54599;SDS011;40500;51.084;16.958;2023-05-24T05:06:55;4.30;;;2.10;;
54599;SDS011;40500;51.084;16.958;2023-05-24T05:09:26;2.80;;;1.80;;
54599;SDS011;40500;51.084;16.958;2023-05-24T05:11:56;6.70;;;2.40;;
54599;SDS011;40500;51.084;16.958;2023-05-24T05:14:27;8.30;;;2.30;;
54599;SDS011;40500;51.084;16.958;2023-05-24T05:16:58;4.00;;;2.30;;
54599;SDS011;40500;51.084;16.958;2023-05-24T05:19:28;3.80;;;2.40;;
54599;SDS011;40500;51.084;16.958;2023-05-24T05:21:59;3.20;;;2.00;;
54599;SDS011;40500;51.084;16.958;2023-05-24T05:24:30;3.30;;;1.70;;
54599;SDS011;40500;51.084;16.958;2023-05-24T05:27:00;3.60;;;1.80;;
54599;SDS011;40500;51.084;16.958;2023-05-24T05:29:31;8.60;;;2.30;;
54599;SDS011;40500;51.084;16.958;2023-05-24T05:32:01;2.80;;;1.80;;
54599;SDS011;40500;51.084;16.958;2023-05-24T05:34:32;5.20;;;1.80;;
54599;SDS011;40500;51.084;16.958;2023-05-24T05:37:02;4.20;;;2.20;;
54599;SDS011;40500;51.084;16.958;2023-05-24T05:39:33;4.20;;;2.10;;
54599;SDS011;40500;51.084;16.958;2023-05-24T05:42:04;3.20;;;1.80;;
54599;SDS011;40500;51.084;16.958;2023-05-24T05:44:36;2.30;;;1.90;;
54599;SDS011;40500;51.084;16.958;2023-05-24T05:47:06;6.20;;;2.70;;
54599;SDS011;40500;51.084;16.958;2023-05-24T05:49:37;5.60;;;2.30;;
54599;SDS011;40500;51.084;16.958;2023-05-24T05:52:07;2.90;;;2.00;;
54599;SDS011;40500;51.084;16.958;2023-05-24T05:54:38;6.80;;;2.80;;
54599;SDS011;40500;51.084;16.958;2023-05-24T05:57:08;3.20;;;2.70;;
54599;SDS011;40500;51.084;16.958;2023-05-24T05:59:39;6.10;;;3.00;;
54599;SDS011;40500;51.084;16.958;2023-05-24T06:02:10;6.30;;;2.90;;
54599;SDS011;40500;51.084;16.958;2023-05-24T06:04:40;6.80;;;2.40;;
54599;SDS011;40500;51.084;16.958;2023-05-24T06:07:11;6.70;;;2.10;;
54599;SDS011;40500;51.084;16.958;2023-05-24T06:09:41;4.90;;;2.30;;
54599;SDS011;40500;51.084;16.958;2023-05-24T06:12:12;5.20;;;2.10;;
54599;SDS011;40500;51.084;16.958;2023-05-24T06:14:42;7.20;;;2.60;;
54599;SDS011;40500;51.084;16.958;2023-05-24T06:17:15;5.30;;;2.50;;
54599;SDS011;40500;51.084;16.958;2023-05-24T06:19:46;4.40;;;2.10;;
54599;SDS011;40500;51.084;16.958;2023-05-24T06:22:16;8.50;;;2.40;;
54599;SDS011;40500;51.084;16.958;2023-05-24T06:24:48;8.20;;;2.80;;
54599;SDS011;40500;51.084;16.958;2023-05-24T06:27:19;9.10;;;2.50;;
54599;SDS011;40500;51.084;16.958;2023-05-24T06:29:49;10.50;;;2.50;;
54599;SDS011;40500;51.084;16.958;2023-05-24T06:32:20;8.20;;;3.00;;
54599;SDS011;40500;51.084;16.958;2023-05-24T06:34:50;7.20;;;2.40;;
54599;SDS011;40500;51.084;16.958;2023-05-24T06:37:21;6.30;;;2.60;;
54599;SDS011;40500;51.084;16.958;2023-05-24T06:39:52;13.30;;;2.70;;
54599;SDS011;40500;51.084;16.958;2023-05-24T06:42:22;12.80;;;2.70;;
54599;SDS011;40500;51.084;16.958;2023-05-24T06:44:52;11.40;;;2.60;;
54599;SDS011;40500;51.084;16.958;2023-05-24T06:47:23;5.70;;;2.70;;
54599;SDS011;40500;51.084;16.958;2023-05-24T06:49:54;10.20;;;3.10;;
54599;SDS011;40500;51.084;16.958;2023-05-24T06:52:24;5.60;;;2.60;;
54599;SDS011;40500;51.084;16.958;2023-05-24T06:54:55;11.80;;;2.90;;
54599;SDS011;40500;51.084;16.958;2023-05-24T06:57:25;8.70;;;2.70;;
54599;SDS011;40500;51.084;16.958;2023-05-24T06:59:56;7.60;;;2.50;;
54599;SDS011;40500;51.084;16.958;2023-05-24T07:02:27;6.30;;;2.90;;
54599;SDS011;40500;51.084;16.958;2023-05-24T07:04:58;11.80;;;3.40;;
54599;SDS011;40500;51.084;16.958;2023-05-24T07:07:28;13.60;;;3.70;;
54599;SDS011;40500;51.084;16.958;2023-05-24T07:10:00;6.00;;;2.50;;
54599;SDS011;40500;51.084;16.958;2023-05-24T07:12:30;12.30;;;3.40;;
54599;SDS011;40500;51.084;16.958;2023-05-24T07:15:01;7.00;;;2.50;;
54599;SDS011;40500;51.084;16.958;2023-05-24T07:17:32;10.30;;;3.10;;
54599;SDS011;40500;51.084;16.958;2023-05-24T07:20:03;10.40;;;3.10;;
54599;SDS011;40500;51.084;16.958;2023-05-24T07:22:37;8.60;;;3.30;;
54599;SDS011;40500;51.084;16.958;2023-05-24T07:25:08;5.60;;;2.90;;
54599;SDS011;40500;51.084;16.958;2023-05-24T07:27:39;12.10;;;3.50;;
54599;SDS011;40500;51.084;16.958;2023-05-24T07:30:10;6.90;;;3.00;;
54599;SDS011;40500;51.084;16.958;2023-05-24T07:32:58;6.80;;;3.00;;
54599;SDS011;40500;51.084;16.958;2023-05-24T07:35:29;9.90;;;3.20;;
54599;SDS011;40500;51.084;16.958;2023-05-24T07:38:00;12.80;;;4.10;;
54599;SDS011;40500;51.084;16.958;2023-05-24T07:40:30;12.00;;;3.90;;
54599;SDS011;40500;51.084;16.958;2023-05-24T07:43:01;7.50;;;3.30;;
54599;SDS011;40500;51.084;16.958;2023-05-24T07:45:34;12.60;;;3.80;;
54599;SDS011;40500;51.084;16.958;2023-05-24T07:48:05;10.30;;;3.30;;
54599;SDS011;40500;51.084;16.958;2023-05-24T07:50:35;5.80;;;3.20;;
54599;SDS011;40500;51.084;16.958;2023-05-24T07:53:06;6.90;;;4.30;;
54599;SDS011;40500;51.084;16.958;2023-05-24T07:55:36;13.70;;;3.60;;
54599;SDS011;40500;51.084;16.958;2023-05-24T07:58:07;10.30;;;3.60;;
54599;SDS011;40500;51.084;16.958;2023-05-24T08:00:38;8.10;;;3.80;;
54599;SDS011;40500;51.084;16.958;2023-05-24T08:03:09;8.50;;;3.10;;
54599;SDS011;40500;51.084;16.958;2023-05-24T08:05:41;6.40;;;2.90;;
54599;SDS011;40500;51.084;16.958;2023-05-24T08:08:12;8.30;;;3.10;;
54599;SDS011;40500;51.084;16.958;2023-05-24T08:10:42;9.60;;;3.90;;
54599;SDS011;40500;51.084;16.958;2023-05-24T08:13:13;13.40;;;3.90;;
54599;SDS011;40500;51.084;16.958;2023-05-24T08:15:44;12.40;;;3.80;;
54599;SDS011;40500;51.084;16.958;2023-05-24T08:18:14;10.50;;;4.20;;
54599;SDS011;40500;51.084;16.958;2023-05-24T08:20:45;9.90;;;3.70;;
54599;SDS011;40500;51.084;16.958;2023-05-24T08:23:15;12.30;;;4.40;;
54599;SDS011;40500;51.084;16.958;2023-05-24T08:25:46;11.90;;;3.40;;
54599;SDS011;40500;51.084;16.958;2023-05-24T08:28:18;8.50;;;3.50;;
54599;SDS011;40500;51.084;16.958;2023-05-24T08:30:48;10.10;;;3.50;;
54599;SDS011;40500;51.084;16.958;2023-05-24T08:33:19;13.20;;;3.30;;
54599;SDS011;40500;51.084;16.958;2023-05-24T08:35:49;11.90;;;3.70;;
54599;SDS011;40500;51.084;16.958;2023-05-24T08:38:20;10.10;;;3.50;;
54599;SDS011;40500;51.084;16.958;2023-05-24T08:40:50;6.40;;;3.30;;
54599;SDS011;40500;51.084;16.958;2023-05-24T08:43:21;10.80;;;3.90;;
54599;SDS011;40500;51.084;16.958;2023-05-24T08:45:53;11.60;;;3.50;;
54599;SDS011;40500;51.084;16.958;2023-05-24T08:48:25;9.40;;;3.50;;
54599;SDS011;40500;51.084;16.958;2023-05-24T08:50:58;14.00;;;3.90;;
54599;SDS011;40500;51.084;16.958;2023-05-24T08:53:28;10.40;;;3.70;;
54599;SDS011;40500;51.084;16.958;2023-05-24T08:56:00;8.80;;;4.00;;
54599;SDS011;40500;51.084;16.958;2023-05-24T08:58:31;7.00;;;4.10;;
54599;SDS011;40500;51.084;16.958;2023-05-24T09:01:01;11.70;;;4.50;;
54599;SDS011;40500;51.084;16.958;2023-05-24T09:03:34;9.10;;;4.10;;
54599;SDS011;40500;51.084;16.958;2023-05-24T09:06:06;10.30;;;4.10;;
54599;SDS011;40500;51.084;16.958;2023-05-24T09:08:38;11.40;;;3.70;;
54599;SDS011;40500;51.084;16.958;2023-05-24T09:11:10;7.50;;;3.40;;
54599;SDS011;40500;51.084;16.958;2023-05-24T09:13:42;7.00;;;3.50;;
54599;SDS011;40500;51.084;16.958;2023-05-24T09:16:13;6.40;;;3.40;;
54599;SDS011;40500;51.084;16.958;2023-05-24T09:18:44;8.90;;;3.70;;
54599;SDS011;40500;51.084;16.958;2023-05-24T09:21:15;6.70;;;2.80;;
54599;SDS011;40500;51.084;16.958;2023-05-24T09:23:46;6.90;;;3.80;;
54599;SDS011;40500;51.084;16.958;2023-05-24T09:26:17;8.20;;;3.60;;
54599;SDS011;40500;51.084;16.958;2023-05-24T09:28:48;7.60;;;3.60;;
54599;SDS011;40500;51.084;16.958;2023-05-24T09:31:25;10.40;;;3.70;;
54599;SDS011;40500;51.084;16.958;2023-05-24T09:34:02;7.20;;;2.90;;
54599;SDS011;40500;51.084;16.958;2023-05-24T09:36:40;5.30;;;3.30;;
54599;SDS011;40500;51.084;16.958;2023-05-24T09:39:13;7.70;;;3.50;;
54599;SDS011;40500;51.084;16.958;2023-05-24T09:41:50;7.40;;;3.50;;
54599;SDS011;40500;51.084;16.958;2023-05-24T09:44:24;6.20;;;3.20;;
54599;SDS011;40500;51.084;16.958;2023-05-24T09:46:59;6.40;;;3.60;;
54599;SDS011;40500;51.084;16.958;2023-05-24T09:49:34;7.50;;;3.60;;
54599;SDS011;40500;51.084;16.958;2023-05-24T09:52:06;6.30;;;3.40;;
54599;SDS011;40500;51.084;16.958;2023-05-24T09:54:36;7.80;;;2.90;;
54599;SDS011;40500;51.084;16.958;2023-05-24T09:57:08;9.60;;;3.80;;
54599;SDS011;40500;51.084;16.958;2023-05-24T09:59:40;6.80;;;3.70;;
54599;SDS011;40500;51.084;16.958;2023-05-24T10:02:11;5.20;;;2.80;;
54599;SDS011;40500;51.084;16.958;2023-05-24T10:04:41;4.70;;;3.00;;
54599;SDS011;40500;51.084;16.958;2023-05-24T10:07:13;7.30;;;3.10;;
54599;SDS011;40500;51.084;16.958;2023-05-24T10:09:45;7.80;;;3.20;;
54599;SDS011;40500;51.084;16.958;2023-05-24T10:12:16;6.40;;;3.30;;
54599;SDS011;40500;51.084;16.958;2023-05-24T10:14:49;5.50;;;2.90;;
54599;SDS011;40500;51.084;16.958;2023-05-24T10:17:24;10.70;;;4.30;;
54599;SDS011;40500;51.084;16.958;2023-05-24T10:19:55;8.50;;;4.00;;
54599;SDS011;40500;51.084;16.958;2023-05-24T10:22:26;8.40;;;4.20;;
54599;SDS011;40500;51.084;16.958;2023-05-24T10:24:59;9.10;;;3.10;;
54599;SDS011;40500;51.084;16.958;2023-05-24T10:27:33;8.50;;;3.70;;
54599;SDS011;40500;51.084;16.958;2023-05-24T10:30:07;6.80;;;3.30;;
54599;SDS011;40500;51.084;16.958;2023-05-24T10:32:43;10.60;;;3.60;;
54599;SDS011;40500;51.084;16.958;2023-05-24T10:35:15;11.90;;;4.20;;
54599;SDS011;40500;51.084;16.958;2023-05-24T10:37:47;11.10;;;3.70;;
54599;SDS011;40500;51.084;16.958;2023-05-24T10:40:19;7.20;;;3.50;;
54599;SDS011;40500;51.084;16.958;2023-05-24T10:42:52;9.30;;;3.50;;
54599;SDS011;40500;51.084;16.958;2023-05-24T10:45:33;8.80;;;3.50;;
54599;SDS011;40500;51.084;16.958;2023-05-24T10:54:11;13.10;;;4.00;;
54599;SDS011;40500;51.084;16.958;2023-05-24T10:56:49;9.30;;;3.70;;
54599;SDS011;40500;51.084;16.958;2023-05-24T10:59:27;6.40;;;3.40;;
54599;SDS011;40500;51.084;16.958;2023-05-24T11:02:02;7.40;;;3.20;;
54599;SDS011;40500;51.084;16.958;2023-05-24T11:04:37;10.10;;;3.10;;
54599;SDS011;40500;51.084;16.958;2023-05-24T11:07:09;5.10;;;2.90;;
54599;SDS011;40500;51.084;16.958;2023-05-24T11:09:42;5.70;;;3.40;;
54599;SDS011;40500;51.084;16.958;2023-05-24T11:12:19;6.60;;;3.40;;
54599;SDS011;40500;51.084;16.958;2023-05-24T11:14:50;9.00;;;3.60;;
54599;SDS011;40500;51.084;16.958;2023-05-24T11:17:22;12.90;;;3.60;;
54599;SDS011;40500;51.084;16.958;2023-05-24T11:19:53;10.40;;;3.80;;
54599;SDS011;40500;51.084;16.958;2023-05-24T11:22:24;7.40;;;3.60;;
54599;SDS011;40500;51.084;16.958;2023-05-24T11:24:54;7.60;;;3.60;;
54599;SDS011;40500;51.084;16.958;2023-05-24T11:27:30;8.20;;;3.40;;
54599;SDS011;40500;51.084;16.958;2023-05-24T11:30:02;8.70;;;3.70;;
54599;SDS011;40500;51.084;16.958;2023-05-24T11:32:34;6.70;;;3.30;;
54599;SDS011;40500;51.084;16.958;2023-05-24T11:35:09;8.50;;;3.80;;
54599;SDS011;40500;51.084;16.958;2023-05-24T11:37:39;7.50;;;3.00;;
54599;SDS011;40500;51.084;16.958;2023-05-24T11:40:13;8.00;;;3.30;;
54599;SDS011;40500;51.084;16.958;2023-05-24T11:42:45;8.70;;;3.10;;
54599;SDS011;40500;51.084;16.958;2023-05-24T11:45:17;7.90;;;3.20;;
54599;SDS011;40500;51.084;16.958;2023-05-24T11:47:49;7.00;;;2.60;;
54599;SDS011;40500;51.084;16.958;2023-05-24T11:50:23;9.10;;;3.00;;
54599;SDS011;40500;51.084;16.958;2023-05-24T11:53:14;6.10;;;3.00;;
54599;SDS011;40500;51.084;16.958;2023-05-24T11:55:45;7.70;;;2.90;;
54599;SDS011;40500;51.084;16.958;2023-05-24T11:58:21;6.50;;;3.00;;
54599;SDS011;40500;51.084;16.958;2023-05-24T12:00:52;6.40;;;2.90;;
54599;SDS011;40500;51.084;16.958;2023-05-24T12:03:23;7.10;;;3.30;;
54599;SDS011;40500;51.084;16.958;2023-05-24T12:05:55;10.20;;;3.60;;
54599;SDS011;40500;51.084;16.958;2023-05-24T12:08:26;11.90;;;3.30;;
54599;SDS011;40500;51.084;16.958;2023-05-24T12:10:57;6.00;;;2.80;;
54599;SDS011;40500;51.084;16.958;2023-05-24T12:13:29;13.60;;;7.70;;
54599;SDS011;40500;51.084;16.958;2023-05-24T12:16:01;12.30;;;3.60;;
54599;SDS011;40500;51.084;16.958;2023-05-24T12:18:32;7.10;;;2.80;;
54599;SDS011;40500;51.084;16.958;2023-05-24T12:21:10;12.30;;;3.20;;
54599;SDS011;40500;51.084;16.958;2023-05-24T12:23:40;7.90;;;3.10;;
54599;SDS011;40500;51.084;16.958;2023-05-24T12:26:11;8.10;;;2.60;;
54599;SDS011;40500;51.084;16.958;2023-05-24T12:28:46;6.20;;;2.90;;
54599;SDS011;40500;51.084;16.958;2023-05-24T12:31:20;6.70;;;2.20;;
54599;SDS011;40500;51.084;16.958;2023-05-24T12:33:51;7.60;;;3.10;;
54599;SDS011;40500;51.084;16.958;2023-05-24T12:36:21;8.60;;;2.80;;
54599;SDS011;40500;51.084;16.958;2023-05-24T12:38:52;7.50;;;2.80;;
54599;SDS011;40500;51.084;16.958;2023-05-24T12:41:24;8.80;;;3.50;;
54599;SDS011;40500;51.084;16.958;2023-05-24T12:43:56;9.30;;;3.20;;
54599;SDS011;40500;51.084;16.958;2023-05-24T12:46:26;8.10;;;2.50;;
54599;SDS011;40500;51.084;16.958;2023-05-24T12:48:57;6.80;;;2.80;;
54599;SDS011;40500;51.084;16.958;2023-05-24T12:51:29;9.70;;;3.10;;
54599;SDS011;40500;51.084;16.958;2023-05-24T12:53:59;7.30;;;2.50;;
54599;SDS011;40500;51.084;16.958;2023-05-24T12:56:31;15.20;;;3.20;;
54599;SDS011;40500;51.084;16.958;2023-05-24T12:59:01;7.00;;;2.80;;
54599;SDS011;40500;51.084;16.958;2023-05-24T13:01:32;8.90;;;2.40;;
54599;SDS011;40500;51.084;16.958;2023-05-24T13:04:03;8.00;;;2.90;;
54599;SDS011;40500;51.084;16.958;2023-05-24T13:06:34;7.50;;;2.60;;
54599;SDS011;40500;51.084;16.958;2023-05-24T13:09:04;6.20;;;2.60;;
54599;SDS011;40500;51.084;16.958;2023-05-24T13:11:36;7.60;;;2.50;;
54599;SDS011;40500;51.084;16.958;2023-05-24T13:14:06;6.70;;;2.00;;
54599;SDS011;40500;51.084;16.958;2023-05-24T13:16:38;5.80;;;2.80;;
54599;SDS011;40500;51.084;16.958;2023-05-24T13:19:09;6.80;;;2.50;;
54599;SDS011;40500;51.084;16.958;2023-05-24T13:21:39;6.40;;;2.70;;
54599;SDS011;40500;51.084;16.958;2023-05-24T13:24:10;8.10;;;3.00;;
54599;SDS011;40500;51.084;16.958;2023-05-24T13:26:42;5.50;;;2.40;;
54599;SDS011;40500;51.084;16.958;2023-05-24T13:29:13;5.90;;;2.40;;
54599;SDS011;40500;51.084;16.958;2023-05-24T13:32:06;7.00;;;2.00;;
54599;SDS011;40500;51.084;16.958;2023-05-24T13:34:36;5.80;;;2.20;;
54599;SDS011;40500;51.084;16.958;2023-05-24T13:37:07;7.00;;;2.30;;
54599;SDS011;40500;51.084;16.958;2023-05-24T13:39:37;5.20;;;1.90;;
54599;SDS011;40500;51.084;16.958;2023-05-24T13:42:08;5.30;;;2.20;;
54599;SDS011;40500;51.084;16.958;2023-05-24T13:44:39;6.20;;;2.70;;
54599;SDS011;40500;51.084;16.958;2023-05-24T13:47:09;6.40;;;2.00;;
54599;SDS011;40500;51.084;16.958;2023-05-24T13:49:58;5.00;;;2.30;;
54599;SDS011;40500;51.084;16.958;2023-05-24T13:52:28;8.90;;;2.20;;
54599;SDS011;40500;51.084;16.958;2023-05-24T13:55:00;7.60;;;1.90;;
54599;SDS011;40500;51.084;16.958;2023-05-24T13:57:32;5.80;;;2.10;;
54599;SDS011;40500;51.084;16.958;2023-05-24T14:00:18;4.90;;;2.00;;
54599;SDS011;40500;51.084;16.958;2023-05-24T14:02:50;4.90;;;2.10;;
54599;SDS011;40500;51.084;16.958;2023-05-24T14:05:21;5.80;;;2.40;;
54599;SDS011;40500;51.084;16.958;2023-05-24T14:07:55;6.80;;;2.30;;
54599;SDS011;40500;51.084;16.958;2023-05-24T14:10:33;2.80;;;1.60;;
54599;SDS011;40500;51.084;16.958;2023-05-24T14:13:04;3.50;;;1.90;;
54599;SDS011;40500;51.084;16.958;2023-05-24T14:15:38;3.60;;;1.90;;
54599;SDS011;40500;51.084;16.958;2023-05-24T14:18:09;5.70;;;1.90;;
54599;SDS011;40500;51.084;16.958;2023-05-24T14:20:40;6.90;;;2.50;;
54599;SDS011;40500;51.084;16.958;2023-05-24T14:23:10;4.20;;;1.90;;
54599;SDS011;40500;51.084;16.958;2023-05-24T14:25:43;8.00;;;2.20;;
54599;SDS011;40500;51.084;16.958;2023-05-24T14:28:14;4.70;;;1.90;;
54599;SDS011;40500;51.084;16.958;2023-05-24T14:30:44;7.10;;;2.20;;
54599;SDS011;40500;51.084;16.958;2023-05-24T14:33:15;7.10;;;2.00;;
54599;SDS011;40500;51.084;16.958;2023-05-24T14:35:45;6.60;;;1.80;;
54599;SDS011;40500;51.084;16.958;2023-05-24T14:38:16;6.70;;;2.30;;
54599;SDS011;40500;51.084;16.958;2023-05-24T14:40:47;5.80;;;1.80;;
54599;SDS011;40500;51.084;16.958;2023-05-24T14:43:18;5.60;;;2.00;;
54599;SDS011;40500;51.084;16.958;2023-05-24T14:45:48;7.00;;;1.50;;
54599;SDS011;40500;51.084;16.958;2023-05-24T14:48:19;8.20;;;1.70;;
54599;SDS011;40500;51.084;16.958;2023-05-24T14:50:52;7.30;;;2.10;;
54599;SDS011;40500;51.084;16.958;2023-05-24T14:53:22;7.00;;;1.90;;
54599;SDS011;40500;51.084;16.958;2023-05-24T14:55:52;5.40;;;2.10;;
54599;SDS011;40500;51.084;16.958;2023-05-24T14:58:23;8.30;;;2.30;;
54599;SDS011;40500;51.084;16.958;2023-05-24T15:00:54;4.70;;;2.00;;
54599;SDS011;40500;51.084;16.958;2023-05-24T15:03:24;4.00;;;1.70;;
54599;SDS011;40500;51.084;16.958;2023-05-24T15:05:55;5.40;;;1.70;;
54599;SDS011;40500;51.084;16.958;2023-05-24T15:08:29;5.40;;;1.70;;
54599;SDS011;40500;51.084;16.958;2023-05-24T15:11:00;6.60;;;2.20;;